EPZG/IEG METAR and TAF weather

Enter ICAO airport designator
Station Type Date Time Source
EPZG METAR 2022/10/01 08:30 UTC NOAA

EPZG 010830Z 18009KT CAVOK 12/09 Q1010


Station Type Date Time Source
EPZG Decoded METAR 2022/10/01 08:30 UTC NOAA

Zielona Gora, Poland (EPZG) 51-56N 015-32E 192M
Oct 01, 2022 - 04:30 AM EDT / 2022.10.01 0830 UTC
Wind: from the S (180 degrees) at 10 MPH (9 KT):0
Visibility: greater than 7 mile(s):0
Temperature: 53 F (12 C)
Dew Point: 48 F (9 C)
Relative Humidity: 81%
Pressure (altimeter): 29.83 in. Hg (1010 hPa)
ob: EPZG 010830Z 18009KT CAVOK 12/09 Q1010
cycle: 8

Station Type Date Time Source
EPZG TAF 2012/06/28 21:49 UTC NOAA

TAF EPZG 282000Z 2821/2906 VRB02KT CAVOK
TEMPO 2823/2904 5000 BR PROB30 2900/2904 1500 BR BKN005

Example: see airport list